createdAt,value
2022-11-22T00:03:15.660Z,247.15
2022-11-22T00:08:15.550Z,247.52
2022-11-22T00:13:15.510Z,242.63
2022-11-22T00:18:15.433Z,241.93
2022-11-22T00:23:15.383Z,241.22
2022-11-22T00:28:15.275Z,239.31
2022-11-22T00:33:15.264Z,238.79
2022-11-22T00:38:15.233Z,236.41
2022-11-22T00:43:15.132Z,238.28
2022-11-22T00:48:15.036Z,240.52
2022-11-22T00:53:14.987Z,238.79
2022-11-22T00:58:14.908Z,236.24
2022-11-22T01:03:14.861Z,234.07
2022-11-22T01:08:38.819Z,230.82
2022-11-22T01:13:31.167Z,230.18
2022-11-22T01:18:31.114Z,227.96
2022-11-22T01:23:31.016Z,230.34
2022-11-22T01:28:31.008Z,231.95
2022-11-22T01:33:30.922Z,231.14
2022-11-22T01:38:30.857Z,229.07
2022-11-22T01:43:30.775Z,229.70
2022-11-22T01:48:30.718Z,228.12
2022-11-22T01:53:30.641Z,226.56
2022-11-22T01:58:30.585Z,224.12
2022-11-22T02:03:30.520Z,224.12
2022-11-22T02:08:30.443Z,222.61
2022-11-22T02:13:30.382Z,220.83
2022-11-22T02:18:30.324Z,220.10
2022-11-22T02:23:30.253Z,219.52
2022-11-22T02:28:30.194Z,220.25
2022-11-22T02:33:30.126Z,219.52
2022-11-22T02:38:30.062Z,220.25
2022-11-22T02:43:29.985Z,220.25
2022-11-22T02:48:29.936Z,219.81
2022-11-22T02:53:29.899Z,220.69
2022-11-22T02:58:29.810Z,220.54
2022-11-22T03:03:29.731Z,220.10
2022-11-22T03:08:29.691Z,220.25
2022-11-22T03:13:29.612Z,220.39
2022-11-22T03:18:29.545Z,220.39
2022-11-22T03:23:29.457Z,221.87
2022-11-22T03:28:29.422Z,223.96
2022-11-22T03:33:29.342Z,225.49
2022-11-22T03:38:29.270Z,226.87
2022-11-22T03:43:29.210Z,226.72
2022-11-22T03:48:29.128Z,227.03
2022-11-22T03:53:29.080Z,227.03
2022-11-22T03:58:29.023Z,230.02
2022-11-22T04:03:28.942Z,229.54
2022-11-22T04:08:28.901Z,230.98
2022-11-22T04:13:28.831Z,231.79
2022-11-22T04:18:28.727Z,232.27
2022-11-22T04:23:33.832Z,231.79
2022-11-22T04:29:07.507Z,231.14
2022-11-22T04:33:29.563Z,231.95
2022-11-22T04:38:28.503Z,231.46
2022-11-22T04:43:28.414Z,230.82
2022-11-22T04:48:28.362Z,231.14
2022-11-22T04:53:28.274Z,230.82
2022-11-22T04:58:28.243Z,229.86
2022-11-22T05:03:28.144Z,229.86
2022-11-22T05:08:28.104Z,230.50
2022-11-22T05:13:28.017Z,232.11
2022-11-22T05:18:37.450Z,234.90
2022-11-22T05:23:29.829Z,235.07
2022-11-22T05:28:29.772Z,234.90
2022-11-22T05:33:29.726Z,234.57
2022-11-22T05:38:29.649Z,233.09
2022-11-22T05:43:29.587Z,234.57
2022-11-22T05:48:29.518Z,232.27
2022-11-22T05:53:29.455Z,230.66
2022-11-22T05:58:29.395Z,229.54
2022-11-22T06:03:29.317Z,229.70
2022-11-22T06:08:29.255Z,230.82
2022-11-22T06:13:29.204Z,230.18
2022-11-22T06:18:29.146Z,230.18
2022-11-22T06:23:29.073Z,229.86
2022-11-22T06:28:29.000Z,231.62
2022-11-22T06:33:28.947Z,233.74
2022-11-22T06:38:28.848Z,236.41
2022-11-22T06:43:28.813Z,242.63
2022-11-22T06:48:28.724Z,249.01
2022-11-22T06:53:46.160Z,249.76
2022-11-22T06:58:29.603Z,249.38
2022-11-22T07:03:28.653Z,249.19
2022-11-22T07:08:28.475Z,251.46
2022-11-22T07:13:28.438Z,253.19
2022-11-22T07:18:28.353Z,252.03
2022-11-22T07:23:28.300Z,252.61
2022-11-22T07:28:28.194Z,251.46
2022-11-22T07:33:28.172Z,248.26
2022-11-22T07:38:28.074Z,244.24
2022-11-22T07:43:28.033Z,244.60
2022-11-22T07:48:27.948Z,246.78
2022-11-22T07:53:27.895Z,246.97
2022-11-22T07:58:27.821Z,245.69
2022-11-22T08:03:29.321Z,243.70
2022-11-22T08:08:27.690Z,242.99
2022-11-22T08:13:27.631Z,245.69
2022-11-22T08:18:27.544Z,244.96
2022-11-22T08:23:27.520Z,244.42
2022-11-22T08:28:27.420Z,244.60
2022-11-22T08:33:27.368Z,243.17
2022-11-22T08:38:27.288Z,241.57
2022-11-22T08:43:27.208Z,237.60
2022-11-22T08:48:27.168Z,235.24
2022-11-22T08:53:27.086Z,235.57
2022-11-22T08:58:27.051Z,236.41
2022-11-22T09:03:26.994Z,235.40
2022-11-22T09:08:28.880Z,231.79
2022-11-22T09:13:26.843Z,223.36
2022-11-22T09:18:26.750Z,218.65
2022-11-22T09:23:26.708Z,212.90
2022-11-22T09:28:26.640Z,209.67
2022-11-22T09:33:26.552Z,204.37
2022-11-22T09:38:26.501Z,198.27
2022-11-22T09:43:26.472Z,196.16
2022-11-22T09:48:26.363Z,191.52
2022-11-22T09:53:26.310Z,189.44
2022-11-22T09:58:26.241Z,192.63
2022-11-22T10:03:26.175Z,198.03
2022-11-22T10:08:26.093Z,202.26
2022-11-22T10:13:26.046Z,207.05
2022-11-22T10:18:25.974Z,213.31
2022-11-22T10:23:25.941Z,221.57
2022-11-22T10:28:25.819Z,228.43
2022-11-22T10:33:25.784Z,231.46
2022-11-22T10:38:25.717Z,233.42
2022-11-22T10:43:25.652Z,237.09
2022-11-22T10:48:25.576Z,241.57
2022-11-22T10:53:25.520Z,242.46
2022-11-22T10:58:25.426Z,244.96
2022-11-22T11:03:25.388Z,246.60
2022-11-22T11:08:47.813Z,244.78
2022-11-22T11:13:26.248Z,245.87
2022-11-22T11:18:25.176Z,251.08
2022-11-22T11:23:25.100Z,253.38
2022-11-22T11:28:25.072Z,252.61
2022-11-22T11:33:24.995Z,249.95
2022-11-22T11:38:24.886Z,250.89
2022-11-22T11:43:24.863Z,250.70
2022-11-22T11:48:24.778Z,250.89
2022-11-22T11:53:24.768Z,254.16
2022-11-22T11:58:24.656Z,254.16
2022-11-22T12:03:24.620Z,253.38
2022-11-22T12:08:24.531Z,253.38
2022-11-22T12:13:24.480Z,254.55
2022-11-22T12:18:24.408Z,254.94
2022-11-22T12:23:24.377Z,253.77
2022-11-22T12:28:24.260Z,254.74
2022-11-22T12:33:24.206Z,254.74
2022-11-22T12:38:24.166Z,255.13
2022-11-22T12:43:24.091Z,256.91
2022-11-22T12:48:24.435Z,256.12
2022-11-22T12:53:23.945Z,255.53
2022-11-22T12:58:23.850Z,252.61
2022-11-22T13:03:23.829Z,252.80
2022-11-22T13:08:23.736Z,251.27
2022-11-22T13:13:23.681Z,252.23
2022-11-22T13:18:23.612Z,255.72
2022-11-22T13:23:23.569Z,258.71
2022-11-22T13:28:23.500Z,261.36
2022-11-22T13:33:23.428Z,263.86
2022-11-22T13:38:23.403Z,261.57
2022-11-22T13:43:23.293Z,260.54
2022-11-22T13:48:23.180Z,261.36
2022-11-22T13:53:23.164Z,257.91
2022-11-22T13:58:23.078Z,257.71
2022-11-22T14:03:23.037Z,254.35
2022-11-22T14:08:22.952Z,254.16
2022-11-22T14:13:22.902Z,257.31
2022-11-22T14:18:22.805Z,258.51
2022-11-22T14:23:22.779Z,258.71
2022-11-22T14:28:22.676Z,257.71
2022-11-22T14:33:22.616Z,256.12
2022-11-22T14:38:28.412Z,253.96
2022-11-22T14:43:23.518Z,254.16
2022-11-22T14:48:22.386Z,252.42
2022-11-22T14:53:22.372Z,252.61
2022-11-22T14:58:22.288Z,249.57
2022-11-22T15:03:22.230Z,247.71
2022-11-22T15:09:21.461Z,250.89
2022-11-22T15:13:23.121Z,249.95
2022-11-22T15:58:22.491Z,240.87
2022-11-22T16:03:21.459Z,239.65
2022-11-22T16:08:21.354Z,237.43
2022-11-22T16:13:21.320Z,237.76
2022-11-22T16:18:21.216Z,236.92
2022-11-22T16:23:21.146Z,236.75
2022-11-22T16:28:21.108Z,238.28
2022-11-22T16:33:21.049Z,239.48
2022-11-22T16:38:20.941Z,238.28
2022-11-22T16:43:20.914Z,236.41
2022-11-22T16:48:35.857Z,235.57
2022-11-22T16:53:21.807Z,232.93
2022-11-22T16:58:20.673Z,232.76
2022-11-22T17:03:20.646Z,231.14
2022-11-22T17:08:20.561Z,230.02
2022-11-22T17:13:20.504Z,230.82
2022-11-22T17:18:20.432Z,233.25
2022-11-22T17:23:20.383Z,233.09
2022-11-22T17:28:20.290Z,231.14
2022-11-22T17:33:20.271Z,229.22
2022-11-22T17:38:20.172Z,228.59
2022-11-22T17:43:20.104Z,227.49
2022-11-22T17:48:20.045Z,226.56
2022-11-22T17:53:20.001Z,225.64
2022-11-22T17:58:19.886Z,225.64
2022-11-22T18:03:19.970Z,225.64
2022-11-22T18:08:21.630Z,225.49
2022-11-22T18:13:21.699Z,226.10
2022-11-22T18:18:48.514Z,223.36
2022-11-22T18:23:20.590Z,222.01
2022-11-22T18:28:19.520Z,221.27
2022-11-22T18:33:19.460Z,223.66
2022-11-22T18:38:19.369Z,224.42
2022-11-22T18:43:19.331Z,228.91
2022-11-22T18:48:20.033Z,230.50
2022-11-22T18:53:19.254Z,229.70
2022-11-22T18:58:19.122Z,229.07
2022-11-22T19:03:19.071Z,227.49
2022-11-22T19:08:19.016Z,225.18
2022-11-22T19:13:18.948Z,224.72
2022-11-22T19:18:18.872Z,223.06
2022-11-22T19:23:18.798Z,221.27
2022-11-22T19:28:18.709Z,221.27
2022-11-22T19:33:18.656Z,220.54
2022-11-22T19:38:18.612Z,223.51
2022-11-22T19:43:18.522Z,226.10
2022-11-22T19:48:18.512Z,226.10
2022-11-22T19:53:18.401Z,228.28
2022-11-22T19:58:18.357Z,230.02
2022-11-22T20:03:18.238Z,233.25
2022-11-22T20:08:18.211Z,233.25
2022-11-22T20:13:18.131Z,231.62
2022-11-22T20:18:18.062Z,230.66
2022-11-22T20:23:18.048Z,230.18
2022-11-22T20:28:17.969Z,227.34
2022-11-22T20:33:17.863Z,224.87
2022-11-22T20:38:17.831Z,225.49
2022-11-22T20:43:17.735Z,224.72
2022-11-22T20:48:17.659Z,222.46
2022-11-22T20:53:17.621Z,219.81
2022-11-22T20:58:17.577Z,219.23
2022-11-22T21:03:17.456Z,219.52
2022-11-22T21:08:17.449Z,218.94
2022-11-22T21:13:17.343Z,218.36
2022-11-22T21:18:25.238Z,219.52
2022-11-22T21:23:18.242Z,220.10
2022-11-22T21:28:17.174Z,222.76
2022-11-22T21:33:17.067Z,222.76
2022-11-22T21:38:17.012Z,222.16
2022-11-22T21:43:16.990Z,222.46
2022-11-22T21:48:16.923Z,225.79
2022-11-22T21:53:16.799Z,227.18
2022-11-22T21:58:16.753Z,226.41
2022-11-22T22:03:16.707Z,226.10
2022-11-22T22:08:16.666Z,225.33
2022-11-22T22:13:16.548Z,226.25
2022-11-22T22:18:16.505Z,226.56
2022-11-22T22:23:16.428Z,226.41
2022-11-22T22:28:16.347Z,228.28
2022-11-22T22:33:16.279Z,230.18
2022-11-22T22:38:16.236Z,230.02
2022-11-22T22:43:16.173Z,231.30
2022-11-22T22:48:16.127Z,229.38
2022-11-22T22:53:16.019Z,228.59
2022-11-22T22:58:21.690Z,229.86
2022-11-22T23:03:16.926Z,229.54
2022-11-22T23:08:15.845Z,229.22
2022-11-22T23:13:15.770Z,232.60
2022-11-22T23:18:15.698Z,234.90
2022-11-22T23:23:15.614Z,234.07
2022-11-22T23:28:15.567Z,231.62
2022-11-22T23:33:15.502Z,229.86
2022-11-22T23:38:15.438Z,229.22
2022-11-22T23:43:15.373Z,230.82
2022-11-22T23:48:15.314Z,230.02
2022-11-22T23:53:15.265Z,227.96
2022-11-22T23:58:15.204Z,227.65
